createdAt,value
2022-07-29T00:01:19.374Z,8.82
2022-07-29T00:05:01.954Z,7.95
2022-07-29T00:08:43.709Z,9.02
2022-07-29T00:12:26.095Z,6.97
2022-07-29T00:16:08.678Z,8.10
2022-07-29T00:19:50.538Z,5.32
2022-07-29T00:23:36.482Z,6.28
2022-07-29T00:27:19.064Z,6.53
2022-07-29T00:31:01.907Z,7.78
2022-07-29T00:35:02.351Z,7.30
2022-07-29T00:38:46.214Z,5.93
2022-07-29T00:42:28.514Z,6.50
2022-07-29T00:46:10.556Z,4.13
2022-07-29T00:49:52.382Z,7.97
2022-07-29T00:53:37.103Z,7.50
2022-07-29T00:57:19.127Z,6.25
2022-07-29T01:01:01.030Z,3.97
2022-07-29T01:04:42.870Z,6.22
2022-07-29T01:08:24.756Z,5.65
2022-07-29T01:12:06.917Z,11.13
2022-07-29T01:15:57.919Z,8.02
2022-07-29T01:19:47.870Z,8.55
2022-07-29T01:23:48.029Z,5.55
2022-07-29T01:27:39.842Z,6.63
2022-07-29T01:31:43.744Z,7.28
2022-07-29T01:35:40.913Z,8.18
2022-07-29T01:39:27.229Z,5.78
2022-07-29T01:43:14.155Z,4.95
2022-07-29T01:46:58.693Z,12.25
2022-07-29T01:50:54.223Z,6.68
2022-07-29T01:54:43.867Z,10.23
2022-07-29T01:58:29.354Z,4.53
2022-07-29T02:02:11.411Z,6.63
2022-07-29T02:05:53.275Z,7.80
2022-07-29T02:09:36.790Z,8.63
2022-07-29T02:13:18.584Z,9.30
2022-07-29T02:17:00.439Z,5.43
2022-07-29T02:20:43.909Z,8.50
2022-07-29T02:24:26.051Z,7.47
2022-07-29T02:28:08.097Z,4.43
2022-07-29T02:31:50.525Z,8.75
2022-07-29T02:35:34.837Z,7.47
2022-07-29T02:39:16.883Z,9.10
2022-07-29T02:42:58.668Z,7.85
2022-07-29T02:47:03.576Z,8.45
2022-07-29T02:50:49.331Z,7.00
2022-07-29T02:54:55.249Z,6.15
2022-07-29T02:58:47.982Z,6.05
2022-07-29T03:02:29.788Z,5.57
2022-07-29T03:06:28.150Z,9.10
2022-07-29T03:10:17.203Z,9.65
2022-07-29T03:13:59.014Z,7.07
2022-07-29T03:17:40.906Z,9.35
2022-07-29T03:21:22.691Z,5.72
2022-07-29T03:25:14.665Z,8.60
2022-07-29T03:28:56.758Z,6.57
2022-07-29T03:32:38.891Z,8.30
2022-07-29T03:36:21.894Z,5.07
2022-07-29T03:40:06.229Z,9.30
2022-07-29T03:43:49.467Z,7.47
2022-07-29T03:47:49.940Z,9.70
2022-07-29T03:51:34.375Z,8.68
2022-07-29T03:55:16.318Z,8.13
2022-07-29T03:58:58.187Z,9.23
2022-07-29T04:02:40.321Z,13.00
2022-07-29T04:06:22.221Z,10.57
2022-07-29T04:10:04.206Z,9.15
2022-07-29T04:13:45.965Z,6.32
2022-07-29T04:17:27.780Z,9.30
2022-07-29T04:21:09.625Z,9.73
2022-07-29T04:24:51.496Z,13.48
2022-07-29T04:28:33.316Z,10.32
2022-07-29T04:32:15.103Z,9.70
2022-07-29T04:35:56.914Z,7.15
2022-07-29T04:39:38.708Z,7.15
2022-07-29T04:43:23.153Z,8.98
2022-07-29T04:47:05.674Z,8.63
2022-07-29T04:50:47.463Z,10.05
2022-07-29T04:54:29.272Z,15.38
2022-07-29T04:58:11.141Z,10.23
2022-07-29T05:01:53.058Z,8.70
2022-07-29T05:05:34.976Z,8.40
2022-07-29T05:09:16.801Z,7.13
2022-07-29T05:12:58.573Z,7.13
2022-07-29T05:16:41.209Z,8.13
2022-07-29T05:20:27.343Z,9.38
2022-07-29T05:24:09.211Z,13.30
2022-07-29T05:27:51.112Z,9.35
2022-07-29T05:31:34.431Z,6.40
2022-07-29T05:35:16.586Z,14.93
2022-07-29T05:38:58.644Z,10.63
2022-07-29T05:42:40.399Z,10.40
2022-07-29T05:46:22.314Z,7.68
2022-07-29T05:50:05.310Z,8.85
2022-07-29T05:53:47.091Z,10.15
2022-07-29T05:57:28.874Z,6.75
2022-07-29T06:01:10.676Z,10.50
2022-07-29T06:04:52.595Z,10.55
2022-07-29T06:08:34.925Z,9.00
2022-07-29T06:12:16.810Z,16.08
2022-07-29T06:16:07.978Z,12.35
2022-07-29T06:19:49.961Z,7.53
2022-07-29T06:23:31.767Z,10.38
2022-07-29T06:27:13.517Z,9.60
2022-07-29T06:30:55.384Z,9.20
2022-07-29T06:34:37.342Z,12.57
2022-07-29T06:38:31.095Z,8.32
2022-07-29T06:42:15.674Z,9.02
2022-07-29T06:45:57.626Z,13.48
2022-07-29T06:49:39.694Z,8.88
2022-07-29T06:53:21.558Z,11.60
2022-07-29T06:57:03.420Z,13.13
2022-07-29T07:00:46.052Z,11.35
2022-07-29T07:04:27.816Z,6.90
2022-07-29T07:08:09.643Z,15.18
2022-07-29T07:11:51.435Z,8.70
2022-07-29T07:15:38.974Z,9.15
2022-07-29T07:19:21.761Z,8.93
2022-07-29T07:23:03.611Z,8.43
2022-07-29T07:26:45.429Z,5.93
2022-07-29T07:30:28.177Z,4.97
2022-07-29T07:34:10.304Z,7.53
2022-07-29T07:37:52.116Z,5.72
2022-07-29T07:41:33.898Z,9.60
2022-07-29T07:45:16.600Z,5.60
2022-07-29T07:48:58.645Z,5.75
2022-07-29T07:52:54.091Z,4.43
2022-07-29T07:56:35.840Z,7.57
2022-07-29T08:00:17.920Z,9.55
2022-07-29T08:03:59.722Z,8.18
2022-07-29T08:07:42.586Z,5.07
2022-07-29T08:11:24.488Z,5.10
2022-07-29T08:15:08.621Z,9.43
2022-07-29T08:18:50.486Z,4.05
2022-07-29T08:22:32.421Z,9.90
2022-07-29T08:26:14.459Z,5.63
2022-07-29T08:29:56.915Z,6.03
2022-07-29T08:33:38.723Z,5.53
2022-07-29T08:37:20.482Z,5.65
2022-07-29T08:41:03.659Z,6.18
2022-07-29T08:44:45.492Z,6.70
2022-07-29T08:48:27.254Z,3.88
2022-07-29T08:52:11.220Z,5.13
2022-07-29T08:55:53.016Z,6.13
2022-07-29T08:59:34.826Z,2.85
2022-07-29T09:03:19.860Z,9.90
2022-07-29T09:07:02.197Z,4.60
2022-07-29T09:10:44.509Z,5.88
2022-07-29T09:14:26.333Z,3.35
2022-07-29T09:18:08.171Z,5.40
2022-07-29T09:22:04.056Z,13.40
2022-07-29T09:25:45.992Z,3.33
2022-07-29T09:29:31.169Z,4.97
2022-07-29T09:33:16.222Z,6.55
2022-07-29T09:36:58.548Z,3.33
2022-07-29T09:40:41.077Z,4.05
2022-07-29T09:44:23.337Z,6.20
2022-07-29T09:48:15.678Z,2.28
2022-07-29T09:52:04.881Z,4.60
2022-07-29T09:55:51.592Z,5.85
2022-07-29T09:59:34.049Z,3.65
2022-07-29T10:03:16.700Z,6.50
2022-07-29T10:07:05.070Z,3.80
2022-07-29T10:10:47.141Z,3.65
2022-07-29T10:14:28.971Z,4.88
2022-07-29T10:18:14.439Z,9.40
2022-07-29T10:21:58.219Z,2.95
2022-07-29T10:25:45.505Z,5.10
2022-07-29T10:29:28.160Z,3.85
2022-07-29T10:33:28.029Z,5.28
2022-07-29T10:37:35.367Z,6.10
2022-07-29T10:41:32.453Z,8.00
2022-07-29T10:45:25.563Z,5.32
2022-07-29T10:49:24.852Z,3.97
2022-07-29T10:53:07.039Z,5.45
2022-07-29T10:56:50.812Z,2.10
2022-07-29T11:00:35.723Z,2.83
2022-07-29T11:04:42.005Z,3.80
2022-07-29T11:08:26.018Z,4.03
2022-07-29T11:12:37.021Z,4.43
2022-07-29T11:16:21.325Z,3.10
2022-07-29T11:20:32.028Z,1.37
2022-07-29T11:24:29.189Z,2.30
2022-07-29T11:28:23.036Z,4.18
2022-07-29T11:32:22.674Z,2.20
2022-07-29T11:36:16.708Z,5.72
2022-07-29T11:40:02.227Z,3.35
2022-07-29T11:43:50.783Z,3.53
2022-07-29T11:47:39.500Z,2.83
2022-07-29T11:51:21.515Z,6.50
2022-07-29T11:55:23.507Z,3.13
2022-07-29T11:59:15.266Z,3.38
2022-07-29T12:02:57.990Z,3.97
2022-07-29T12:06:48.721Z,2.47
2022-07-29T12:10:33.820Z,1.85
2022-07-29T12:18:11.888Z,2.38
2022-07-29T12:21:56.642Z,1.60
2022-07-29T12:25:42.998Z,1.63
2022-07-29T12:29:35.567Z,1.13
2022-07-29T12:33:20.555Z,2.03
2022-07-29T12:40:44.719Z,5.68
2022-07-29T12:44:30.105Z,1.83
2022-07-29T12:48:12.019Z,2.28
2022-07-29T12:51:54.661Z,4.93
2022-07-29T12:55:52.265Z,1.95
2022-07-29T12:59:34.079Z,3.15
2022-07-29T13:03:20.254Z,1.67
2022-07-29T13:07:04.550Z,2.45
2022-07-29T13:10:47.023Z,2.90
2022-07-29T13:14:35.338Z,2.10
2022-07-29T13:18:30.987Z,1.77
2022-07-29T13:22:20.623Z,3.15
2022-07-29T13:26:17.169Z,1.10
2022-07-29T13:30:00.458Z,2.95
2022-07-29T13:33:42.325Z,2.90
2022-07-29T13:37:24.116Z,3.58
2022-07-29T13:41:05.958Z,2.72
2022-07-29T13:44:49.639Z,2.28
2022-07-29T13:48:31.530Z,1.30
2022-07-29T13:52:13.354Z,3.65
2022-07-29T13:55:55.971Z,1.52
2022-07-29T13:59:37.771Z,8.40
2022-07-29T14:03:19.548Z,4.50
2022-07-29T14:07:03.685Z,4.30
2022-07-29T14:10:46.081Z,5.37
2022-07-29T14:14:27.937Z,2.55
2022-07-29T14:18:09.774Z,6.93
2022-07-29T14:21:51.577Z,2.00
2022-07-29T14:25:33.475Z,1.92
2022-07-29T14:29:15.395Z,1.95
2022-07-29T14:32:57.226Z,3.33
2022-07-29T14:36:39.199Z,3.53
2022-07-29T14:40:21.027Z,2.97
2022-07-29T14:44:02.928Z,2.08
2022-07-29T14:47:44.677Z,5.07
2022-07-29T14:51:32.484Z,6.32
2022-07-29T14:55:16.593Z,2.88
2022-07-29T14:59:01.977Z,1.58
2022-07-29T15:03:00.903Z,3.33
2022-07-29T15:06:44.081Z,4.03
2022-07-29T15:10:27.971Z,1.90
2022-07-29T15:14:09.913Z,3.65
2022-07-29T15:17:51.707Z,2.47
2022-07-29T15:21:33.564Z,4.22
2022-07-29T15:25:15.366Z,1.52
2022-07-29T15:28:57.135Z,2.47
2022-07-29T15:32:38.920Z,2.38
2022-07-29T15:36:50.141Z,3.15
2022-07-29T15:40:22.711Z,3.05
2022-07-29T15:44:04.708Z,3.72
2022-07-29T15:47:46.536Z,3.67
2022-07-29T15:51:28.405Z,6.43
2022-07-29T15:55:10.326Z,4.88
2022-07-29T15:58:52.138Z,2.28
2022-07-29T16:02:34.042Z,3.50
2022-07-29T16:06:16.627Z,10.88
2022-07-29T16:09:58.439Z,6.05
2022-07-29T16:13:40.466Z,5.72
2022-07-29T16:17:22.369Z,5.72
2022-07-29T16:21:04.165Z,4.90
2022-07-29T16:24:45.991Z,7.55
2022-07-29T16:28:28.717Z,6.82
2022-07-29T16:32:10.648Z,2.45
2022-07-29T16:35:52.589Z,3.33
2022-07-29T16:39:34.394Z,6.97
2022-07-29T16:43:16.254Z,5.50
2022-07-29T16:46:59.698Z,4.63
2022-07-29T16:50:43.317Z,2.67
2022-07-29T16:54:25.541Z,3.05
2022-07-29T16:58:07.400Z,5.75
2022-07-29T17:01:49.315Z,3.72
2022-07-29T17:05:52.373Z,5.75
2022-07-29T17:09:33.134Z,3.60
2022-07-29T17:13:15.023Z,7.60
2022-07-29T17:17:01.370Z,8.00
2022-07-29T17:20:43.618Z,7.97
2022-07-29T17:24:25.409Z,6.68
2022-07-29T17:28:07.236Z,4.70
2022-07-29T17:31:49.058Z,5.82
2022-07-29T17:35:49.297Z,4.63
2022-07-29T17:39:31.071Z,4.25
2022-07-29T17:43:12.869Z,5.93
2022-07-29T17:46:54.939Z,4.85
2022-07-29T17:50:36.861Z,6.07
2022-07-29T17:54:18.716Z,4.70
2022-07-29T17:58:00.497Z,4.30
2022-07-29T18:01:42.384Z,6.53
2022-07-29T18:05:24.217Z,7.18
2022-07-29T18:09:06.084Z,4.63
2022-07-29T18:12:48.009Z,8.05
2022-07-29T18:16:29.861Z,5.60
2022-07-29T18:20:11.892Z,5.30
2022-07-29T18:23:53.667Z,5.50
2022-07-29T18:27:35.437Z,7.65
2022-07-29T18:31:17.300Z,4.00
2022-07-29T18:35:02.716Z,3.15
2022-07-29T18:38:44.673Z,7.70
2022-07-29T18:42:26.435Z,3.47
2022-07-29T18:46:08.335Z,3.80
2022-07-29T18:49:50.190Z,1.77
2022-07-29T18:53:32.196Z,3.45
2022-07-29T18:57:55.077Z,6.60
2022-07-29T19:01:20.666Z,4.05
2022-07-29T19:05:02.499Z,2.83
2022-07-29T19:08:44.369Z,3.88
2022-07-29T19:12:26.609Z,3.97
2022-07-29T19:16:11.916Z,2.63
2022-07-29T19:19:53.931Z,6.13
2022-07-29T19:24:01.489Z,3.63
2022-07-29T19:27:37.692Z,6.53
2022-07-29T19:31:19.561Z,3.83
2022-07-29T19:35:19.790Z,6.25
2022-07-29T19:39:01.761Z,3.00
2022-07-29T19:42:43.914Z,4.22
2022-07-29T19:46:28.733Z,5.55
2022-07-29T19:50:10.679Z,4.68
2022-07-29T19:53:52.562Z,4.28
2022-07-29T19:57:40.761Z,8.43
2022-07-29T20:01:24.676Z,5.70
2022-07-29T20:05:07.222Z,6.97
2022-07-29T20:08:49.512Z,6.93
2022-07-29T20:12:31.320Z,7.50
2022-07-29T20:16:13.248Z,4.65
2022-07-29T20:19:56.341Z,5.88
2022-07-29T20:23:38.186Z,7.55
2022-07-29T20:27:20.022Z,6.40
2022-07-29T20:31:01.901Z,11.95
2022-07-29T20:34:43.735Z,11.35
2022-07-29T20:38:25.522Z,5.90
2022-07-29T20:42:07.494Z,8.55
2022-07-29T20:45:49.410Z,12.65
2022-07-29T20:49:31.276Z,8.88
2022-07-29T20:53:13.582Z,5.88
2022-07-29T20:56:55.374Z,7.57
2022-07-29T21:00:37.466Z,10.18
2022-07-29T21:04:19.354Z,12.77
2022-07-29T21:08:01.194Z,14.70
2022-07-29T21:11:44.443Z,10.48
2022-07-29T21:15:28.511Z,14.50
2022-07-29T21:19:10.320Z,5.80
2022-07-29T21:22:55.446Z,9.07
2022-07-29T21:26:37.267Z,9.07
2022-07-29T21:30:19.258Z,12.07
2022-07-29T21:34:01.091Z,9.25
2022-07-29T21:37:42.893Z,8.68
2022-07-29T21:41:24.774Z,8.35
2022-07-29T21:45:06.972Z,7.88
2022-07-29T21:48:48.832Z,10.40
2022-07-29T21:52:30.678Z,9.45
2022-07-29T21:56:14.563Z,8.80
2022-07-29T22:00:02.155Z,8.35
2022-07-29T22:03:44.643Z,7.75
2022-07-29T22:07:54.514Z,10.88
2022-07-29T22:11:28.323Z,14.93
2022-07-29T22:15:10.560Z,8.82
2022-07-29T22:18:52.870Z,7.35
2022-07-29T22:22:35.591Z,9.95
2022-07-29T22:26:17.488Z,7.88
2022-07-29T22:29:59.611Z,5.88
2022-07-29T22:33:41.990Z,6.25
2022-07-29T22:37:24.373Z,10.73
2022-07-29T22:41:06.345Z,11.57
2022-07-29T22:44:48.140Z,12.10
2022-07-29T22:48:29.997Z,7.80
2022-07-29T22:52:11.846Z,11.13
2022-07-29T22:55:56.509Z,6.93
2022-07-29T22:59:38.380Z,8.35
2022-07-29T23:03:21.047Z,10.50
2022-07-29T23:07:03.091Z,8.73
2022-07-29T23:10:45.276Z,8.15
2022-07-29T23:14:27.049Z,6.20
2022-07-29T23:18:09.036Z,9.23
2022-07-29T23:21:50.825Z,13.48
2022-07-29T23:25:32.663Z,11.50
2022-07-29T23:29:14.501Z,9.35
2022-07-29T23:32:56.346Z,12.38
2022-07-29T23:36:38.174Z,14.43
2022-07-29T23:40:19.986Z,13.43
2022-07-29T23:44:01.754Z,7.72
2022-07-29T23:47:43.670Z,11.13
2022-07-29T23:51:25.989Z,9.02
2022-07-29T23:55:37.546Z,12.30
2022-07-29T23:59:10.733Z,11.35
